createdAt,value
2018-07-03T00:01:22.644Z,41.13
2018-07-03T00:03:48.603Z,41.28
2018-07-03T00:06:14.575Z,40.83
2018-07-03T00:08:40.550Z,41.26
2018-07-03T00:11:06.524Z,41.18
2018-07-03T00:13:32.474Z,41.00
2018-07-03T00:15:58.447Z,40.82
2018-07-03T00:18:24.417Z,40.64
2018-07-03T00:20:50.395Z,41.46
2018-07-03T00:23:16.351Z,40.44
2018-07-03T00:25:42.314Z,40.88
2018-07-03T00:28:08.282Z,40.69
2018-07-03T00:30:34.241Z,41.48
2018-07-03T00:33:00.197Z,41.56
2018-07-03T00:35:26.273Z,40.90
2018-07-03T00:37:52.230Z,41.53
2018-07-03T00:40:18.208Z,40.75
2018-07-03T00:42:44.408Z,40.69
2018-07-03T00:45:10.387Z,41.58
2018-07-03T00:47:36.371Z,41.62
2018-07-03T00:50:02.376Z,41.33
2018-07-03T00:52:28.386Z,41.02
2018-07-03T00:54:54.367Z,40.88
2018-07-03T00:57:20.365Z,40.52
2018-07-03T00:59:46.319Z,41.37
2018-07-03T01:02:12.331Z,41.61
2018-07-03T01:04:38.315Z,40.83
2018-07-03T01:07:04.340Z,41.13
2018-07-03T01:09:30.311Z,41.32
2018-07-03T01:11:56.292Z,42.02
2018-07-03T01:14:22.243Z,41.55
2018-07-03T01:16:48.250Z,41.65
2018-07-03T01:19:14.218Z,42.12
2018-07-03T01:21:40.228Z,40.72
2018-07-03T01:24:06.318Z,41.77
2018-07-03T01:26:32.457Z,41.22
2018-07-03T01:28:58.426Z,41.37
2018-07-03T01:31:24.397Z,41.78
2018-07-03T01:33:50.380Z,40.84
2018-07-03T01:36:16.405Z,41.23
2018-07-03T01:38:42.367Z,41.63
2018-07-03T01:41:08.368Z,41.64
2018-07-03T01:43:34.337Z,41.72
2018-07-03T01:46:00.329Z,41.50
2018-07-03T01:48:26.302Z,41.47
2018-07-03T01:50:52.279Z,41.93
2018-07-03T01:53:18.316Z,42.09
2018-07-03T01:55:44.302Z,41.19
2018-07-03T01:58:10.287Z,41.77
2018-07-03T02:00:36.254Z,42.01
2018-07-03T02:03:02.222Z,41.64
2018-07-03T02:05:28.189Z,41.32
2018-07-03T02:07:54.200Z,41.99
2018-07-03T02:10:20.325Z,42.39
2018-07-03T02:12:46.359Z,41.70
2018-07-03T02:15:12.345Z,41.90
2018-07-03T02:17:38.371Z,41.63
2018-07-03T02:20:04.659Z,41.47
2018-07-03T02:22:30.677Z,42.01
2018-07-03T02:24:56.680Z,42.44
2018-07-03T02:27:22.675Z,42.34
2018-07-03T02:29:48.677Z,41.92
2018-07-03T02:32:14.686Z,42.29
2018-07-03T02:34:40.675Z,41.82
2018-07-03T02:37:06.667Z,42.28
2018-07-03T02:39:32.659Z,41.46
2018-07-03T02:41:58.646Z,42.42
2018-07-03T02:44:24.598Z,42.22
2018-07-03T02:46:50.615Z,42.31
2018-07-03T02:49:16.571Z,42.97
2018-07-03T02:51:42.557Z,42.82
2018-07-03T02:54:08.553Z,42.77
2018-07-03T02:56:34.596Z,41.92
2018-07-03T02:59:00.600Z,42.43
2018-07-03T03:01:26.596Z,42.68
2018-07-03T03:03:52.584Z,42.16
2018-07-03T03:06:18.595Z,41.73
2018-07-03T03:08:44.582Z,41.83
2018-07-03T03:11:10.648Z,42.14
2018-07-03T03:13:36.645Z,42.43
2018-07-03T03:16:02.619Z,42.75
2018-07-03T03:18:28.739Z,41.58
2018-07-03T03:20:54.718Z,41.38
2018-07-03T03:23:20.688Z,41.48
2018-07-03T03:25:46.720Z,42.34
2018-07-03T03:28:12.729Z,42.58
2018-07-03T03:30:38.696Z,42.65
2018-07-03T03:33:04.706Z,42.06
2018-07-03T03:35:30.677Z,41.98
2018-07-03T03:37:56.663Z,43.10
2018-07-03T03:40:22.664Z,42.59
2018-07-03T03:42:48.804Z,42.41
2018-07-03T03:45:14.808Z,42.00
2018-07-03T03:47:40.778Z,43.46
2018-07-03T03:50:06.778Z,42.55
2018-07-03T03:52:32.750Z,43.19
2018-07-03T03:54:58.751Z,43.66
2018-07-03T03:57:24.738Z,43.10
2018-07-03T03:59:50.726Z,42.55
2018-07-03T04:02:16.766Z,42.85
2018-07-03T04:04:42.716Z,42.94
2018-07-03T04:07:08.854Z,42.08
2018-07-03T04:09:34.842Z,42.97
2018-07-03T04:12:01.167Z,43.74
2018-07-03T04:14:27.195Z,42.89
2018-07-03T04:16:53.168Z,43.22
2018-07-03T04:19:19.150Z,43.01
2018-07-03T04:21:45.146Z,43.87
2018-07-03T04:24:11.144Z,43.31
2018-07-03T04:26:37.145Z,43.58
2018-07-03T04:29:03.150Z,43.72
2018-07-03T04:31:29.136Z,42.98
2018-07-03T04:33:55.125Z,43.40
2018-07-03T04:36:21.084Z,43.07
2018-07-03T04:38:47.095Z,42.95
2018-07-03T04:41:13.083Z,43.11
2018-07-03T04:43:39.052Z,44.13
2018-07-03T04:46:05.065Z,43.37
2018-07-03T04:48:31.107Z,43.81
2018-07-03T04:50:57.108Z,43.62
2018-07-03T04:53:23.114Z,43.68
2018-07-03T04:55:49.082Z,43.80
2018-07-03T04:58:15.124Z,43.67
2018-07-03T05:00:41.100Z,43.80
2018-07-03T05:03:07.096Z,44.62
2018-07-03T05:05:33.080Z,44.61
2018-07-03T05:07:59.028Z,44.39
2018-07-03T05:10:24.980Z,44.34
2018-07-03T05:12:50.948Z,43.94
2018-07-03T05:15:16.948Z,44.42
2018-07-03T05:17:42.932Z,43.84
2018-07-03T05:20:08.989Z,44.51
2018-07-03T05:22:34.997Z,43.70
2018-07-03T05:25:00.995Z,44.80
2018-07-03T05:27:27.017Z,44.36
2018-07-03T05:29:53.002Z,43.65
2018-07-03T05:32:19.041Z,43.55
2018-07-03T05:34:45.034Z,43.40
2018-07-03T05:37:11.131Z,42.94
2018-07-03T05:39:37.408Z,43.23
2018-07-03T05:42:03.384Z,42.25
2018-07-03T05:44:29.368Z,42.08
2018-07-03T05:46:55.602Z,43.24
2018-07-03T05:49:21.555Z,43.21
2018-07-03T05:51:47.528Z,42.36
2018-07-03T05:54:13.523Z,42.36
2018-07-03T05:56:39.933Z,42.72
2018-07-03T05:59:05.917Z,40.77
2018-07-03T06:01:31.928Z,41.29
2018-07-03T06:03:57.933Z,40.75
2018-07-03T06:06:23.916Z,40.81
2018-07-03T06:08:49.896Z,40.44
2018-07-03T06:11:15.897Z,41.52
2018-07-03T06:13:41.916Z,40.24
2018-07-03T06:16:07.908Z,40.61
2018-07-03T06:18:33.987Z,40.41
2018-07-03T06:21:00.038Z,39.18
2018-07-03T06:23:25.994Z,39.09
2018-07-03T06:25:52.107Z,38.83
2018-07-03T06:28:18.183Z,39.26
2018-07-03T06:30:44.173Z,38.35
2018-07-03T06:33:10.291Z,39.02
2018-07-03T06:35:36.252Z,39.62
2018-07-03T06:38:02.229Z,38.73
2018-07-03T06:40:28.221Z,38.88
2018-07-03T06:42:54.299Z,38.08
2018-07-03T06:45:20.282Z,39.52
2018-07-03T06:47:46.244Z,40.12
2018-07-03T06:50:12.288Z,39.33
2018-07-03T06:52:38.260Z,39.18
2018-07-03T06:55:04.259Z,38.94
2018-07-03T06:57:30.219Z,41.12
2018-07-03T06:59:56.179Z,41.72
2018-07-03T07:02:22.180Z,40.86
2018-07-03T07:04:48.180Z,41.17
2018-07-03T07:07:14.171Z,39.75
2018-07-03T07:09:40.184Z,39.75
2018-07-03T07:12:06.169Z,39.40
2018-07-03T07:14:32.135Z,41.90
2018-07-03T07:16:58.138Z,40.56
2018-07-03T07:19:24.106Z,41.45
2018-07-03T07:21:50.155Z,39.30
2018-07-03T07:24:16.245Z,39.64
2018-07-03T07:26:42.244Z,42.36
2018-07-03T07:29:08.284Z,42.25
2018-07-03T07:31:34.345Z,41.22
2018-07-03T07:34:00.339Z,42.04
2018-07-03T07:36:26.314Z,42.03
2018-07-03T07:38:52.276Z,42.50
2018-07-03T07:41:18.269Z,40.27
2018-07-03T07:43:44.307Z,41.59
2018-07-03T07:46:10.268Z,42.49
2018-07-03T07:48:36.326Z,41.23
2018-07-03T07:51:02.331Z,39.02
2018-07-03T07:53:28.323Z,39.23
2018-07-03T07:55:54.330Z,40.68
2018-07-03T07:58:20.314Z,40.35
2018-07-03T08:00:46.330Z,41.46
2018-07-03T08:03:12.320Z,43.74
2018-07-03T08:05:38.371Z,40.91
2018-07-03T08:08:04.345Z,41.46
2018-07-03T08:10:30.396Z,42.11
2018-07-03T08:12:56.413Z,41.54
2018-07-03T08:15:22.387Z,40.93
2018-07-03T08:17:48.360Z,42.44
2018-07-03T08:20:14.340Z,42.27
2018-07-03T08:22:40.343Z,41.27
2018-07-03T08:25:06.333Z,40.86
2018-07-03T08:27:32.407Z,41.39
2018-07-03T08:29:58.404Z,40.82
2018-07-03T08:32:24.419Z,40.23
2018-07-03T08:34:50.407Z,40.84
2018-07-03T08:37:16.371Z,42.01
2018-07-03T08:39:42.327Z,41.98
2018-07-03T08:42:08.328Z,41.73
2018-07-03T08:44:34.299Z,43.01
2018-07-03T08:47:00.478Z,42.47
2018-07-03T08:49:26.692Z,43.31
2018-07-03T08:51:52.766Z,41.89
2018-07-03T08:54:18.652Z,42.62
2018-07-03T08:56:44.834Z,43.31
2018-07-03T08:59:10.820Z,42.30
2018-07-03T09:01:36.825Z,41.98
2018-07-03T09:04:03.037Z,41.58
2018-07-03T09:06:29.115Z,42.91
2018-07-03T09:08:55.108Z,42.29
2018-07-03T09:11:21.099Z,42.75
2018-07-03T09:13:47.113Z,42.25
2018-07-03T09:16:13.108Z,42.05
2018-07-03T09:18:39.072Z,42.44
2018-07-03T09:21:05.077Z,42.05
2018-07-03T09:23:31.155Z,41.82
2018-07-03T09:25:57.094Z,44.13
2018-07-03T09:28:23.075Z,43.23
2018-07-03T09:30:49.047Z,43.09
2018-07-03T09:33:15.003Z,41.91
2018-07-03T09:35:41.172Z,42.45
2018-07-03T09:38:07.160Z,43.12
2018-07-03T09:40:33.145Z,42.62
2018-07-03T09:42:59.423Z,42.32
2018-07-03T09:45:25.394Z,42.48
2018-07-03T09:47:51.400Z,43.24
2018-07-03T09:50:17.398Z,40.50
2018-07-03T09:52:43.385Z,42.08
2018-07-03T09:55:09.413Z,42.26
2018-07-03T09:57:35.476Z,42.32
2018-07-03T10:00:01.477Z,41.05
2018-07-03T10:02:27.499Z,41.48
2018-07-03T10:04:53.591Z,41.11
2018-07-03T10:07:19.608Z,42.33
2018-07-03T10:09:45.582Z,43.43
2018-07-03T10:12:11.547Z,44.45
2018-07-03T10:14:37.524Z,41.72
2018-07-03T10:17:03.543Z,43.74
2018-07-03T10:19:29.521Z,43.32
2018-07-03T10:21:55.512Z,42.72
2018-07-03T10:24:21.493Z,42.79
2018-07-03T10:26:47.504Z,41.66
2018-07-03T10:29:14.041Z,42.56
2018-07-03T10:31:40.056Z,42.42
2018-07-03T10:34:06.041Z,42.51
2018-07-03T10:36:32.050Z,41.42
2018-07-03T10:38:58.032Z,43.61
2018-07-03T10:41:24.041Z,43.71
2018-07-03T10:43:50.031Z,41.87
2018-07-03T10:46:16.025Z,41.83
2018-07-03T10:48:42.038Z,42.61
2018-07-03T10:51:08.020Z,40.70
2018-07-03T10:53:34.000Z,41.11
2018-07-03T10:55:59.973Z,41.56
2018-07-03T10:58:26.005Z,41.90
2018-07-03T11:00:52.017Z,43.87
2018-07-03T11:03:18.021Z,43.14
2018-07-03T11:05:44.013Z,43.88
2018-07-03T11:08:10.020Z,44.80
2018-07-03T11:10:36.017Z,44.43
2018-07-03T11:13:02.230Z,44.25
2018-07-03T11:15:28.280Z,43.98
2018-07-03T11:17:54.235Z,44.93
2018-07-03T11:20:20.217Z,44.03
2018-07-03T11:22:46.534Z,44.11
2018-07-03T11:25:12.545Z,42.63
2018-07-03T11:27:38.498Z,43.79
2018-07-03T11:30:04.493Z,44.30
2018-07-03T11:32:30.819Z,44.74
2018-07-03T11:34:56.797Z,44.59
2018-07-03T11:37:22.773Z,46.04
2018-07-03T11:39:48.776Z,45.51
2018-07-03T11:42:14.735Z,45.03
2018-07-03T11:44:40.766Z,44.30
2018-07-03T11:47:06.730Z,44.40
2018-07-03T11:49:32.718Z,44.24
2018-07-03T11:51:58.709Z,44.96
2018-07-03T11:54:24.716Z,44.57
2018-07-03T11:56:50.706Z,45.84
2018-07-03T11:59:16.718Z,45.79
2018-07-03T12:01:43.027Z,46.10
2018-07-03T12:04:08.989Z,46.75
2018-07-03T12:06:34.969Z,46.89
2018-07-03T12:09:01.061Z,45.99
2018-07-03T12:11:27.052Z,46.86
2018-07-03T12:13:53.066Z,45.37
2018-07-03T12:16:19.068Z,46.41
2018-07-03T12:18:45.049Z,46.28
2018-07-03T12:21:11.038Z,46.34
2018-07-03T12:23:37.022Z,45.71
2018-07-03T12:26:02.994Z,46.21
2018-07-03T12:28:28.989Z,45.34
2018-07-03T12:30:54.982Z,45.42
2018-07-03T12:33:20.982Z,45.95
2018-07-03T12:35:46.960Z,46.68
2018-07-03T12:38:12.942Z,46.87
2018-07-03T12:40:38.934Z,47.08
2018-07-03T12:43:05.011Z,46.63
2018-07-03T12:45:30.994Z,46.79
2018-07-03T12:47:56.967Z,47.09
2018-07-03T12:50:22.924Z,46.64
2018-07-03T12:52:48.905Z,45.94
2018-07-03T12:55:14.887Z,47.25
2018-07-03T12:57:41.080Z,46.42
2018-07-03T13:00:07.145Z,46.72
2018-07-03T13:02:33.124Z,47.33
2018-07-03T13:04:59.143Z,46.37
2018-07-03T13:07:25.106Z,46.53
2018-07-03T13:09:51.163Z,46.79
2018-07-03T13:12:17.249Z,47.08
2018-07-03T13:14:43.245Z,47.25
2018-07-03T13:17:09.287Z,47.35
2018-07-03T13:19:35.253Z,47.59
2018-07-03T13:22:01.231Z,47.26
2018-07-03T13:24:27.234Z,47.99
2018-07-03T13:26:53.365Z,46.78
2018-07-03T13:29:19.356Z,48.08
2018-07-03T13:31:45.430Z,46.97
2018-07-03T13:34:11.469Z,47.80
2018-07-03T13:36:37.431Z,47.45
2018-07-03T13:39:03.503Z,47.35
2018-07-03T13:41:29.472Z,47.84
2018-07-03T13:43:55.678Z,47.84
2018-07-03T13:46:21.668Z,47.59
2018-07-03T13:48:47.667Z,47.92
2018-07-03T13:51:13.629Z,47.81
2018-07-03T13:53:39.614Z,47.99
2018-07-03T13:56:05.581Z,46.79
2018-07-03T13:58:31.558Z,48.02
2018-07-03T14:00:57.558Z,47.34
2018-07-03T14:03:23.501Z,47.43
2018-07-03T14:05:49.491Z,47.03
2018-07-03T14:08:15.475Z,47.31
2018-07-03T14:10:41.488Z,47.45
2018-07-03T14:13:07.452Z,47.27
2018-07-03T14:15:33.485Z,47.65
2018-07-03T14:17:59.590Z,47.63
2018-07-03T14:20:25.580Z,48.12
2018-07-03T14:22:51.619Z,47.68
2018-07-03T14:25:17.589Z,47.24
2018-07-03T14:27:43.592Z,47.88
2018-07-03T14:30:09.606Z,47.80
2018-07-03T14:32:35.556Z,47.78
2018-07-03T14:35:01.532Z,47.34
2018-07-03T14:37:27.511Z,47.87
2018-07-03T14:39:53.476Z,47.56
2018-07-03T14:42:19.484Z,47.71
2018-07-03T14:44:45.489Z,48.79
2018-07-03T14:47:11.466Z,48.29
2018-07-03T14:49:37.454Z,47.60
2018-07-03T14:52:03.419Z,48.37
2018-07-03T14:54:29.422Z,47.21
2018-07-03T14:56:55.430Z,48.30
2018-07-03T14:59:21.407Z,47.64
2018-07-03T15:01:47.408Z,48.23
2018-07-03T15:04:13.371Z,47.23
2018-07-03T15:06:39.451Z,47.97
2018-07-03T15:09:05.463Z,48.09
2018-07-03T15:11:31.441Z,47.80
2018-07-03T15:13:57.451Z,47.65
2018-07-03T15:16:23.461Z,47.42
2018-07-03T15:18:49.440Z,47.51
2018-07-03T15:21:15.450Z,47.51
2018-07-03T15:23:41.512Z,47.75
2018-07-03T15:26:07.537Z,48.47
2018-07-03T15:28:33.520Z,47.79
2018-07-03T15:30:59.490Z,47.39
2018-07-03T15:33:25.460Z,47.67
2018-07-03T15:35:51.536Z,48.28
2018-07-03T15:38:17.540Z,47.91
2018-07-03T15:40:43.517Z,48.44
2018-07-03T15:43:09.498Z,48.53
2018-07-03T15:45:35.463Z,48.00
2018-07-03T15:48:02.006Z,47.61
2018-07-03T15:50:28.000Z,48.08
2018-07-03T15:52:53.978Z,47.87
2018-07-03T15:55:19.941Z,48.19
2018-07-03T15:57:45.920Z,47.87
2018-07-03T16:00:11.911Z,48.05
2018-07-03T16:02:37.905Z,48.74
2018-07-03T16:05:03.896Z,48.50
2018-07-03T16:07:29.872Z,47.96
2018-07-03T16:09:55.880Z,48.59
2018-07-03T16:12:21.916Z,48.17
2018-07-03T16:14:47.919Z,47.61
2018-07-03T16:17:13.874Z,47.93
2018-07-03T16:19:39.848Z,47.83
2018-07-03T16:22:05.831Z,48.12
2018-07-03T16:24:31.811Z,48.70
2018-07-03T16:26:57.844Z,48.13
2018-07-03T16:29:23.848Z,48.50
2018-07-03T16:31:49.877Z,48.49
2018-07-03T16:34:15.875Z,47.88
2018-07-03T16:36:41.865Z,48.52
2018-07-03T16:39:07.844Z,48.79
2018-07-03T16:41:33.838Z,47.93
2018-07-03T16:44:00.103Z,48.48
2018-07-03T16:46:26.049Z,48.25
2018-07-03T16:48:52.021Z,48.32
2018-07-03T16:51:18.014Z,49.04
2018-07-03T16:53:44.001Z,48.93
2018-07-03T16:56:10.196Z,48.89
2018-07-03T16:58:36.217Z,49.33
2018-07-03T17:01:02.162Z,48.51
2018-07-03T17:03:28.156Z,48.78
2018-07-03T17:05:54.112Z,48.17
2018-07-03T17:08:20.094Z,48.93
2018-07-03T17:10:46.097Z,48.99
2018-07-03T17:13:12.081Z,48.70
2018-07-03T17:15:38.076Z,48.75
2018-07-03T17:18:04.053Z,48.06
2018-07-03T17:20:30.071Z,49.14
2018-07-03T17:22:56.065Z,49.42
2018-07-03T17:25:22.108Z,49.05
2018-07-03T17:27:48.120Z,48.86
2018-07-03T17:30:14.099Z,49.70
2018-07-03T17:32:40.355Z,49.20
2018-07-03T17:35:06.323Z,49.21
2018-07-03T17:37:32.289Z,48.91
2018-07-03T17:39:58.245Z,49.09
2018-07-03T17:42:24.259Z,49.82
2018-07-03T17:44:50.230Z,49.51
2018-07-03T17:47:16.221Z,48.91
2018-07-03T17:49:42.218Z,49.89
2018-07-03T17:52:08.199Z,49.18
2018-07-03T17:54:34.174Z,48.60
2018-07-03T17:57:00.170Z,49.81
2018-07-03T17:59:26.171Z,49.27
2018-07-03T18:01:52.524Z,49.72
2018-07-03T18:04:18.552Z,49.40
2018-07-03T18:06:45.368Z,48.85
2018-07-03T18:09:11.621Z,49.96
2018-07-03T18:11:37.606Z,49.55
2018-07-03T18:14:03.602Z,49.35
2018-07-03T18:16:29.631Z,50.16
2018-07-03T18:18:55.612Z,49.11
2018-07-03T18:21:21.599Z,49.95
2018-07-03T18:23:47.603Z,49.75
2018-07-03T18:26:13.739Z,49.49
2018-07-03T18:28:39.721Z,49.21
2018-07-03T18:31:05.703Z,49.30
2018-07-03T18:33:31.700Z,49.97
2018-07-03T18:35:57.699Z,49.10
2018-07-03T18:38:23.684Z,49.64
2018-07-03T18:40:50.018Z,49.10
2018-07-03T18:43:16.025Z,50.04
2018-07-03T18:45:42.028Z,49.68
2018-07-03T18:48:08.028Z,49.24
2018-07-03T18:50:34.327Z,49.36
2018-07-03T18:53:00.278Z,49.85
2018-07-03T18:55:26.245Z,49.98
2018-07-03T18:57:52.224Z,50.01
2018-07-03T19:00:18.247Z,50.12
2018-07-03T19:02:44.206Z,49.54
2018-07-03T19:05:10.182Z,49.88
2018-07-03T19:07:36.233Z,49.62
2018-07-03T19:10:02.236Z,49.84
2018-07-03T19:12:28.260Z,49.08
2018-07-03T19:14:54.305Z,49.72
2018-07-03T19:17:20.292Z,48.93
2018-07-03T19:19:46.384Z,48.56
2018-07-03T19:22:12.424Z,49.04
2018-07-03T19:24:38.406Z,49.08
2018-07-03T19:27:05.262Z,49.21
2018-07-03T19:29:31.269Z,49.80
2018-07-03T19:31:57.278Z,49.05
2018-07-03T19:34:23.268Z,49.36
2018-07-03T19:36:49.299Z,48.27
2018-07-03T19:39:15.319Z,48.06
2018-07-03T19:41:41.339Z,49.10
2018-07-03T19:44:07.331Z,50.00
2018-07-03T19:46:33.312Z,49.60
2018-07-03T19:48:59.308Z,50.67
2018-07-03T19:51:25.338Z,49.27
2018-07-03T19:53:51.340Z,50.19
2018-07-03T19:56:17.348Z,49.60
2018-07-03T19:58:43.372Z,49.42
2018-07-03T20:01:09.353Z,49.52
2018-07-03T20:03:35.333Z,48.41
2018-07-03T20:06:01.324Z,48.39
2018-07-03T20:08:27.472Z,49.00
2018-07-03T20:10:53.514Z,48.59
2018-07-03T20:13:20.536Z,48.26
2018-07-03T20:15:46.519Z,48.42
2018-07-03T20:18:12.509Z,49.09
2018-07-03T20:20:38.471Z,49.97
2018-07-03T20:23:04.442Z,49.38
2018-07-03T20:25:30.415Z,48.85
2018-07-03T20:27:56.391Z,48.62
2018-07-03T20:30:23.403Z,48.53
2018-07-03T20:32:49.431Z,49.28
2018-07-03T20:35:15.427Z,49.03
2018-07-03T20:37:41.426Z,49.00
2018-07-03T20:40:07.396Z,49.03
2018-07-03T20:42:33.374Z,48.12
2018-07-03T20:44:59.357Z,49.20
2018-07-03T20:47:25.370Z,48.94
2018-07-03T20:49:51.346Z,48.21
2018-07-03T20:52:17.347Z,48.54
2018-07-03T20:54:43.325Z,46.34
2018-07-03T20:57:09.334Z,47.06
2018-07-03T20:59:35.335Z,47.04
2018-07-03T21:02:01.317Z,47.90
2018-07-03T21:04:27.345Z,47.71
2018-07-03T21:06:53.303Z,47.04
2018-07-03T21:09:19.322Z,47.61
2018-07-03T21:11:45.502Z,48.00
2018-07-03T21:14:11.508Z,48.08
2018-07-03T21:16:37.577Z,47.41
2018-07-03T21:19:03.567Z,47.33
2018-07-03T21:21:29.562Z,48.50
2018-07-03T21:23:55.536Z,47.47
2018-07-03T21:26:21.524Z,47.64
2018-07-03T21:28:47.558Z,47.40
2018-07-03T21:31:13.650Z,44.43
2018-07-03T21:33:39.843Z,48.77
2018-07-03T21:36:05.809Z,47.71
2018-07-03T21:38:31.826Z,47.64
2018-07-03T21:40:57.794Z,47.74
2018-07-03T21:43:23.779Z,47.53
2018-07-03T21:45:49.750Z,47.72
2018-07-03T21:48:15.812Z,47.08
2018-07-03T21:50:41.787Z,46.74
2018-07-03T21:53:07.771Z,46.90
2018-07-03T21:55:33.723Z,47.52
2018-07-03T21:57:59.733Z,47.38
2018-07-03T22:00:25.748Z,47.18
2018-07-03T22:02:51.674Z,47.05
2018-07-03T22:05:17.639Z,47.26
2018-07-03T22:07:43.627Z,46.80
2018-07-03T22:10:09.620Z,47.40
2018-07-03T22:12:35.607Z,47.16
2018-07-03T22:15:01.601Z,47.49
2018-07-03T22:17:27.568Z,47.42
2018-07-03T22:19:53.569Z,47.54
2018-07-03T22:22:19.541Z,47.58
2018-07-03T22:24:45.537Z,47.97
2018-07-03T22:27:11.519Z,47.85
2018-07-03T22:29:37.806Z,48.37
2018-07-03T22:32:03.768Z,47.59
2018-07-03T22:34:29.742Z,47.64
2018-07-03T22:36:55.923Z,47.88
2018-07-03T22:39:21.921Z,46.95
2018-07-03T22:41:47.917Z,48.83
2018-07-03T22:44:13.875Z,48.63
2018-07-03T22:46:39.911Z,47.52
2018-07-03T22:49:05.895Z,48.88
2018-07-03T22:51:31.858Z,47.23
2018-07-03T22:53:57.958Z,48.71
2018-07-03T22:56:23.919Z,46.51
2018-07-03T22:58:49.889Z,45.64
2018-07-03T23:01:15.887Z,47.23
2018-07-03T23:03:41.872Z,48.80
2018-07-03T23:06:07.861Z,48.16
2018-07-03T23:08:33.925Z,47.21
2018-07-03T23:10:59.878Z,47.35
2018-07-03T23:13:25.917Z,46.68
2018-07-03T23:15:51.823Z,47.29
2018-07-03T23:18:17.833Z,46.67
2018-07-03T23:20:43.799Z,46.73
2018-07-03T23:23:09.801Z,47.60
2018-07-03T23:25:35.907Z,47.58
2018-07-03T23:28:01.887Z,46.80
2018-07-03T23:30:27.889Z,46.89
2018-07-03T23:32:53.856Z,46.79
2018-07-03T23:35:19.852Z,46.58
2018-07-03T23:37:45.828Z,47.04
2018-07-03T23:40:11.791Z,45.88
2018-07-03T23:42:37.768Z,46.77
2018-07-03T23:45:03.718Z,46.63
2018-07-03T23:47:29.742Z,46.57
2018-07-03T23:49:55.806Z,46.10
2018-07-03T23:52:21.799Z,46.57
2018-07-03T23:54:47.731Z,46.75
2018-07-03T23:57:13.716Z,46.34
2018-07-03T23:59:39.676Z,46.84
